Time;durP1;ratioP1;P1;durP2;ratioP2;P2;SDS_P1;SDS_P2;PMS_P1;PMS_P2;Temp;Humidity;BMP_temperature;BMP_pressure;BME280_temperature;BME280_humidity;BME280_pressure;Samples;Min_cycle;Max_cycle;Signal;HPM_P1;HPM_P2
2023/12/09 00:00:32;;;;;;;3.88;3.10;;;7.70;96.70;;;;;;4881950;29;20048;-59
2023/12/09 00:03:01;;;;;;;4.00;3.35;;;7.70;96.70;;;;;;4885513;29;20048;-60
2023/12/09 00:05:32;;;;;;;4.35;3.50;;;7.70;96.70;;;;;;4883885;29;20415;-59
2023/12/09 00:08:00;;;;;;;5.32;3.75;;;7.70;96.70;;;;;;4903657;29;20075;-59
2023/12/09 00:10:32;;;;;;;3.72;3.20;;;7.70;96.70;;;;;;4920176;29;20416;-59
2023/12/09 00:13:01;;;;;;;3.88;3.00;;;7.70;96.70;;;;;;4897149;29;20047;-60
2023/12/09 00:15:31;;;;;;;4.95;3.50;;;7.70;96.70;;;;;;4891510;29;20047;-59
2023/12/09 00:18:02;;;;;;;3.72;3.17;;;7.70;96.70;;;;;;4893989;29;20142;-59
2023/12/09 00:20:32;;;;;;;4.15;3.22;;;7.70;96.70;;;;;;4892899;29;20064;-59
2023/12/09 00:23:01;;;;;;;5.28;3.45;;;7.60;96.70;;;;;;4890290;29;20503;-59
2023/12/09 00:25:32;;;;;;;3.92;2.92;;;7.60;96.70;;;;;;4888721;29;20051;-59
2023/12/09 00:28:01;;;;;;;2.72;2.38;;;7.60;96.70;;;;;;4872978;29;20063;-59
2023/12/09 00:30:32;;;;;;;3.92;2.83;;;7.60;96.70;;;;;;4891706;29;20056;-59
2023/12/09 00:33:02;;;;;;;2.83;2.40;;;7.50;96.70;;;;;;4877103;29;20874;-60
2023/12/09 00:35:32;;;;;;;3.30;2.67;;;7.50;96.70;;;;;;4881343;29;20044;-59
2023/12/09 00:38:02;;;;;;;4.45;2.72;;;7.50;96.70;;;;;;4878318;29;20067;-59
2023/12/09 00:40:33;;;;;;;3.15;2.50;;;7.50;96.70;;;;;;4867473;29;20049;-60
2023/12/09 00:43:02;;;;;;;4.22;3.08;;;7.50;96.70;;;;;;4869472;29;20060;-60
2023/12/09 00:45:31;;;;;;;3.72;2.72;;;7.60;96.70;;;;;;4894327;29;20176;-60
2023/12/09 00:47:59;;;;;;;3.45;2.78;;;7.50;96.70;;;;;;4868877;29;20115;-59
2023/12/09 00:50:28;;;;;;;3.70;2.58;;;7.50;96.70;;;;;;4887776;29;20068;-60
2023/12/09 00:52:57;;;;;;;3.80;2.90;;;7.50;96.70;;;;;;4874572;29;20059;-59
2023/12/09 00:55:26;;;;;;;3.30;3.00;;;7.60;96.70;;;;;;4860260;29;20047;-60
2023/12/09 00:58:02;;;;;;;3.42;2.53;;;7.50;96.70;;;;;;4904336;29;20056;-59
2023/12/09 01:00:31;;;;;;;4.82;2.97;;;7.50;96.70;;;;;;4894855;29;20056;-60
2023/12/09 01:03:00;;;;;;;3.33;3.03;;;7.50;96.70;;;;;;4883735;29;20396;-59
2023/12/09 01:05:29;;;;;;;4.70;3.20;;;7.50;96.70;;;;;;4907530;29;20047;-60
2023/12/09 01:07:58;;;;;;;3.72;3.00;;;7.50;96.70;;;;;;4894572;29;20040;-60
2023/12/09 01:10:26;;;;;;;4.00;2.90;;;7.50;96.70;;;;;;4894172;29;20044;-59
2023/12/09 01:12:55;;;;;;;3.78;3.25;;;7.50;96.70;;;;;;4890568;29;20051;-60
2023/12/09 01:15:26;;;;;;;4.20;3.10;;;7.50;96.70;;;;;;4902671;29;20494;-59
2023/12/09 01:17:56;;;;;;;3.67;3.15;;;7.50;96.70;;;;;;4891328;29;20152;-60
2023/12/09 01:20:25;;;;;;;4.28;3.55;;;7.50;96.70;;;;;;4884027;29;20511;-59
2023/12/09 01:22:54;;;;;;;3.90;2.80;;;7.50;96.70;;;;;;4883918;29;20062;-60
2023/12/09 01:25:23;;;;;;;4.30;2.85;;;7.60;96.70;;;;;;4907423;29;20061;-59
2023/12/09 01:27:52;;;;;;;3.45;3.15;;;7.50;96.70;;;;;;4878017;29;20063;-60
2023/12/09 01:30:21;;;;;;;4.10;2.88;;;7.50;96.70;;;;;;4898828;29;20040;-61
2023/12/09 01:32:54;;;;;;;3.75;2.90;;;7.50;96.70;;;;;;4885457;29;20055;-59
2023/12/09 01:35:25;;;;;;;4.18;3.28;;;7.60;96.70;;;;;;4907610;29;20576;-60
2023/12/09 01:37:55;;;;;;;4.38;3.13;;;7.60;96.70;;;;;;4889765;29;20111;-59
2023/12/09 01:40:23;;;;;;;3.38;2.92;;;7.60;96.70;;;;;;4896612;29;20517;-60
2023/12/09 01:42:51;;;;;;;5.65;3.47;;;7.60;96.70;;;;;;4888622;29;20058;-60
2023/12/09 01:45:21;;;;;;;3.90;3.20;;;7.60;96.70;;;;;;4883569;29;20431;-59
2023/12/09 01:47:53;;;;;;;3.92;3.13;;;7.60;96.70;;;;;;4889782;29;20056;-60
2023/12/09 01:50:22;;;;;;;4.28;3.17;;;7.60;96.70;;;;;;4909147;29;20103;-61
2023/12/09 01:52:53;;;;;;;4.68;3.65;;;7.60;96.70;;;;;;4889624;29;20130;-59
2023/12/09 01:55:21;;;;;;;4.78;3.65;;;7.60;96.70;;;;;;4895928;29;20048;-60
2023/12/09 01:57:51;;;;;;;4.43;3.60;;;7.60;96.70;;;;;;4886661;29;20056;-60
2023/12/09 02:00:21;;;;;;;4.30;3.30;;;7.60;96.70;;;;;;4909376;29;20411;-59
2023/12/09 02:02:56;;;;;;;6.47;3.95;;;7.60;96.70;;;;;;4873500;29;20052;-60
2023/12/09 02:05:26;;;;;;;3.40;3.10;;;7.60;96.70;;;;;;4894139;29;20146;-59
2023/12/09 02:07:55;;;;;;;3.97;3.45;;;7.60;96.70;;;;;;4889781;29;20048;-59
2023/12/09 02:10:24;;;;;;;4.18;3.13;;;7.70;96.70;;;;;;4888328;29;20048;-60
2023/12/09 02:13:00;;;;;;;4.13;3.25;;;7.70;96.70;;;;;;4888861;29;20123;-60
2023/12/09 02:15:38;;;;;;;4.28;3.50;;;7.70;96.70;;;;;;4897510;29;20062;-60
2023/12/09 02:18:11;;;;;;;3.33;2.97;;;7.70;96.70;;;;;;4891793;29;20755;-59
2023/12/09 02:20:41;;;;;;;4.00;3.60;;;7.70;96.70;;;;;;4909522;29;20036;-60
2023/12/09 02:23:12;;;;;;;4.10;3.45;;;7.80;96.70;;;;;;4899212;29;20052;-61
2023/12/09 02:25:41;;;;;;;4.40;3.53;;;7.80;96.70;;;;;;4896525;29;20050;-59
2023/12/09 02:28:16;;;;;;;3.78;3.25;;;7.80;96.70;;;;;;4893468;29;20519;-59
2023/12/09 02:30:50;;;;;;;3.60;2.63;;;7.80;96.70;;;;;;4890344;29;20063;-59
2023/12/09 02:33:22;;;;;;;4.72;3.03;;;7.80;96.70;;;;;;4888817;29;20084;-59
2023/12/09 02:35:53;;;;;;;3.90;3.38;;;7.80;96.70;;;;;;4895967;29;20059;-60
2023/12/09 02:38:28;;;;;;;2.90;2.58;;;7.80;96.70;;;;;;4890334;29;20144;-59
2023/12/09 02:40:58;;;;;;;4.30;2.95;;;7.70;96.70;;;;;;4882261;29;20598;-60
2023/12/09 02:43:29;;;;;;;3.72;2.85;;;7.80;96.70;;;;;;4892134;29;20052;-60
2023/12/09 02:45:57;;;;;;;3.88;2.95;;;7.80;96.70;;;;;;4900936;29;20054;-59
2023/12/09 02:48:26;;;;;;;3.58;3.03;;;7.80;96.70;;;;;;4888236;29;20607;-59
2023/12/09 02:50:56;;;;;;;3.60;2.90;;;7.80;96.70;;;;;;4882816;29;20044;-60
2023/12/09 02:53:27;;;;;;;5.97;3.55;;;7.80;96.70;;;;;;4892809;29;20059;-60
2023/12/09 02:55:59;;;;;;;3.90;3.35;;;7.80;96.70;;;;;;4920606;29;20056;-60
2023/12/09 02:58:29;;;;;;;3.22;2.85;;;7.80;96.70;;;;;;4893560;29;20062;-61
2023/12/09 03:00:58;;;;;;;3.42;3.00;;;7.80;96.70;;;;;;4902739;29;20046;-59
2023/12/09 03:03:29;;;;;;;4.57;3.15;;;7.80;96.70;;;;;;4890967;29;20071;-59
2023/12/09 03:06:00;;;;;;;3.88;2.65;;;7.80;96.70;;;;;;4913351;29;20060;-60
2023/12/09 03:08:30;;;;;;;3.38;2.88;;;7.80;96.70;;;;;;4908218;29;20147;-60
2023/12/09 03:11:00;;;;;;;3.05;2.72;;;7.80;96.70;;;;;;4897745;29;20052;-60
2023/12/09 03:13:30;;;;;;;3.70;2.75;;;7.80;96.70;;;;;;4893365;29;20058;-60
2023/12/09 03:16:01;;;;;;;4.13;3.50;;;7.80;96.70;;;;;;4894218;29;20051;-60
2023/12/09 03:18:32;;;;;;;3.22;2.92;;;7.70;96.70;;;;;;4911972;29;20088;-59
2023/12/09 03:21:01;;;;;;;3.40;3.08;;;7.70;96.70;;;;;;4897059;29;20139;-60
2023/12/09 03:23:31;;;;;;;4.72;3.20;;;7.70;96.70;;;;;;4894197;29;20476;-60
2023/12/09 03:26:01;;;;;;;3.53;3.22;;;7.70;96.70;;;;;;4835346;29;20152;-59
2023/12/09 03:28:30;;;;;;;4.03;3.05;;;7.70;96.70;;;;;;4839101;29;20171;-59
2023/12/09 03:31:01;;;;;;;3.78;3.13;;;7.70;96.70;;;;;;4818480;29;20516;-59
2023/12/09 03:33:37;;;;;;;2.95;2.65;;;7.70;96.70;;;;;;4835168;29;20098;-60
2023/12/09 03:36:08;;;;;;;4.25;3.45;;;7.60;96.70;;;;;;4834207;29;20059;-59
2023/12/09 03:38:40;;;;;;;4.03;2.90;;;7.70;96.70;;;;;;4825909;29;20088;-59
2023/12/09 03:41:10;;;;;;;4.55;2.83;;;7.70;96.70;;;;;;4839570;29;20080;-59
2023/12/09 03:43:39;;;;;;;4.53;3.10;;;7.70;96.70;;;;;;4834758;29;20080;-60
2023/12/09 03:46:13;;;;;;;4.30;3.47;;;7.70;96.70;;;;;;5483285;23;20110;-59
2023/12/09 03:48:42;;;;;;;3.28;2.95;;;7.70;96.70;;;;;;4875327;29;20084;-58
2023/12/09 03:51:12;;;;;;;4.45;2.80;;;7.70;96.70;;;;;;4878720;29;20076;-59
2023/12/09 03:53:42;;;;;;;4.22;3.25;;;7.70;96.70;;;;;;4886187;29;20053;-59
2023/12/09 03:56:16;;;;;;;3.53;2.90;;;7.70;96.70;;;;;;4892340;29;20060;-59
2023/12/09 03:58:45;;;;;;;4.18;2.78;;;7.70;96.70;;;;;;4878804;29;20059;-59
2023/12/09 04:01:14;;;;;;;4.30;3.22;;;7.70;96.70;;;;;;4870331;29;20116;-59
2023/12/09 04:03:43;;;;;;;2.95;2.65;;;7.60;96.70;;;;;;4880355;29;20072;-59
2023/12/09 04:06:12;;;;;;;3.40;2.95;;;7.50;96.70;;;;;;4888148;29;20058;-59
2023/12/09 04:08:44;;;;;;;3.33;2.50;;;7.50;96.70;;;;;;4855698;29;20052;-59
2023/12/09 04:11:14;;;;;;;2.58;2.30;;;7.40;96.70;;;;;;4872654;29;20068;-59
2023/12/09 04:13:43;;;;;;;2.47;2.25;;;7.40;96.70;;;;;;4880884;29;20510;-60
2023/12/09 04:16:12;;;;;;;3.15;2.25;;;7.40;96.70;;;;;;4879306;29;20052;-58
2023/12/09 04:19:05;;;;;;;2.97;2.45;;;7.40;96.70;;;;;;4876869;29;20511;-59
2023/12/09 04:21:37;;;;;;;2.38;2.10;;;7.40;96.70;;;;;;4876422;29;20609;-59
2023/12/09 04:24:07;;;;;;;3.08;2.08;;;7.40;96.70;;;;;;4879614;29;20047;-58
2023/12/09 04:26:36;;;;;;;3.13;2.17;;;7.40;96.70;;;;;;4865217;29;20060;-59
2023/12/09 04:29:06;;;;;;;2.25;2.05;;;7.40;96.70;;;;;;4862925;29;20052;-58
2023/12/09 04:31:37;;;;;;;3.45;2.35;;;7.30;96.70;;;;;;4869470;29;20504;-59
2023/12/09 04:34:06;;;;;;;3.45;2.60;;;7.30;96.70;;;;;;4893227;29;20143;-58
2023/12/09 04:36:35;;;;;;;2.67;2.20;;;7.20;96.70;;;;;;4895489;29;20496;-59
2023/12/09 04:39:07;;;;;;;2.45;2.15;;;7.20;96.70;;;;;;4892116;29;20067;-58
2023/12/09 04:41:35;;;;;;;2.55;2.03;;;7.10;96.70;;;;;;4890108;29;20052;-59
2023/12/09 04:44:05;;;;;;;2.97;2.67;;;7.10;96.70;;;;;;4889874;29;20052;-58
2023/12/09 04:46:34;;;;;;;3.90;3.60;;;7.10;96.70;;;;;;4873872;29;20061;-59
2023/12/09 04:49:03;;;;;;;3.20;2.90;;;7.10;96.70;;;;;;4863504;29;20104;-58
2023/12/09 04:51:33;;;;;;;3.42;2.80;;;7.20;96.70;;;;;;4876767;29;20083;-58
2023/12/09 04:54:02;;;;;;;3.95;2.60;;;7.20;96.70;;;;;;4891811;29;20845;-58
2023/12/09 04:56:32;;;;;;;3.17;2.08;;;7.10;96.70;;;;;;4852358;29;20059;-59
2023/12/09 04:59:02;;;;;;;3.13;2.53;;;7.00;96.70;;;;;;4861632;29;20056;-59
2023/12/09 05:01:31;;;;;;;2.40;1.90;;;7.00;96.70;;;;;;4844761;29;20068;-59
2023/12/09 05:04:00;;;;;;;2.45;2.25;;;7.00;96.70;;;;;;4840995;29;20049;-59
2023/12/09 05:06:31;;;;;;;2.47;2.28;;;7.00;96.70;;;;;;4860715;29;20049;-59
2023/12/09 05:09:01;;;;;;;3.97;2.17;;;6.90;96.70;;;;;;4845919;29;20109;-59
2023/12/09 05:11:34;;;;;;;2.78;2.20;;;7.00;96.70;;;;;;4856539;29;20119;-59
2023/12/09 05:14:02;;;;;;;4.93;3.30;;;6.90;96.70;;;;;;4874499;29;20083;-59
2023/12/09 05:16:32;;;;;;;5.82;4.50;;;6.90;96.70;;;;;;4870595;29;20075;-59
2023/12/09 05:19:01;;;;;;;5.38;4.82;;;6.90;96.70;;;;;;4860402;29;20052;-58
2023/12/09 05:21:30;;;;;;;4.28;3.42;;;6.90;96.70;;;;;;4876742;29;20060;-59
2023/12/09 05:24:04;;;;;;;3.78;3.38;;;6.90;96.70;;;;;;4856237;29;20715;-59
2023/12/09 05:26:35;;;;;;;3.75;2.88;;;6.80;96.70;;;;;;4882457;29;20056;-59
2023/12/09 05:29:04;;;;;;;3.65;3.13;;;6.70;96.70;;;;;;4885174;29;20084;-59
2023/12/09 05:31:35;;;;;;;4.18;3.05;;;6.70;96.70;;;;;;4862662;29;20041;-59
2023/12/09 05:34:04;;;;;;;2.80;2.40;;;6.70;96.70;;;;;;4855766;29;20136;-58
2023/12/09 05:36:34;;;;;;;3.60;2.22;;;6.60;96.70;;;;;;4868866;29;20507;-59
2023/12/09 05:39:03;;;;;;;3.25;2.13;;;6.60;96.70;;;;;;4871305;29;20512;-59
2023/12/09 05:41:34;;;;;;;4.60;2.50;;;6.50;96.70;;;;;;4879593;29;20037;-59
2023/12/09 05:44:04;;;;;;;2.95;2.22;;;6.50;96.70;;;;;;4851970;29;20056;-59
2023/12/09 05:46:32;;;;;;;3.20;2.33;;;6.40;96.70;;;;;;4851544;29;20081;-59
2023/12/09 05:49:02;;;;;;;4.22;2.50;;;6.50;96.70;;;;;;4892701;29;20452;-59
2023/12/09 05:51:30;;;;;;;6.20;3.08;;;6.50;96.70;;;;;;4864021;29;20528;-59
2023/12/09 05:54:01;;;;;;;3.13;2.67;;;6.50;96.70;;;;;;4875964;29;20056;-58
2023/12/09 05:56:30;;;;;;;3.05;2.75;;;6.50;96.70;;;;;;4894570;29;20455;-59
2023/12/09 05:59:01;;;;;;;2.95;2.33;;;6.50;96.70;;;;;;4859059;29;20055;-59
2023/12/09 06:01:32;;;;;;;2.83;2.30;;;6.40;96.70;;;;;;4853116;29;20049;-58
2023/12/09 06:04:02;;;;;;;2.50;2.30;;;6.50;96.70;;;;;;4858137;29;20053;-59
2023/12/09 06:06:32;;;;;;;2.78;2.33;;;6.40;96.70;;;;;;4876589;29;20044;-58
2023/12/09 06:09:01;;;;;;;3.03;2.30;;;6.40;96.70;;;;;;4854736;29;20108;-59
2023/12/09 06:11:31;;;;;;;2.72;2.17;;;6.40;96.70;;;;;;4857374;29;20037;-59
2023/12/09 06:14:02;;;;;;;2.67;2.17;;;6.30;96.70;;;;;;4873166;29;20076;-59
2023/12/09 06:16:31;;;;;;;3.67;2.63;;;6.30;96.70;;;;;;4881445;29;20056;-58
2023/12/09 06:19:00;;;;;;;2.42;1.90;;;6.30;96.70;;;;;;4875019;29;20056;-59
2023/12/09 06:21:28;;;;;;;2.88;2.58;;;6.30;96.70;;;;;;4861880;29;20056;-58
2023/12/09 06:23:58;;;;;;;3.60;2.88;;;6.30;96.70;;;;;;4856448;29;20049;-59
2023/12/09 06:26:27;;;;;;;2.40;2.20;;;6.30;96.70;;;;;;4863054;29;20051;-59
2023/12/09 06:28:56;;;;;;;3.78;3.47;;;6.40;96.70;;;;;;4855677;29;20103;-59
2023/12/09 06:31:28;;;;;;;3.30;3.00;;;6.40;96.70;;;;;;4861828;29;20991;-59
2023/12/09 06:33:58;;;;;;;3.20;2.65;;;6.40;96.70;;;;;;4876671;29;20075;-59
2023/12/09 06:36:27;;;;;;;3.33;2.85;;;6.40;96.70;;;;;;4864087;29;20060;-59
2023/12/09 06:38:59;;;;;;;3.70;3.10;;;6.40;96.70;;;;;;4861848;29;20063;-59
2023/12/09 06:41:30;;;;;;;3.72;2.80;;;6.40;96.70;;;;;;4879930;29;20116;-59
2023/12/09 06:43:59;;;;;;;3.97;3.05;;;6.40;96.70;;;;;;4864271;29;20063;-59
2023/12/09 06:46:30;;;;;;;3.72;3.28;;;6.30;96.70;;;;;;4882946;29;20060;-59
2023/12/09 06:48:58;;;;;;;3.38;2.88;;;6.30;96.70;;;;;;4878540;29;20056;-59
2023/12/09 06:51:29;;;;;;;3.30;2.67;;;6.40;96.70;;;;;;4896960;29;20142;-58
2023/12/09 06:54:00;;;;;;;8.32;5.68;;;6.40;96.70;;;;;;4874606;29;20053;-58
2023/12/09 06:56:29;;;;;;;6.72;4.30;;;6.40;96.70;;;;;;4886297;29;20527;-59
2023/12/09 06:58:57;;;;;;;4.90;3.67;;;6.40;96.70;;;;;;4893181;29;20502;-58
2023/12/09 07:01:30;;;;;;;6.97;5.28;;;6.30;96.70;;;;;;4858772;29;20516;-58
2023/12/09 07:03:59;;;;;;;5.72;4.07;;;6.30;96.70;;;;;;4845314;29;20064;-59
2023/12/09 07:06:29;;;;;;;5.20;4.07;;;6.30;96.70;;;;;;4858771;29;20071;-58
2023/12/09 07:08:57;;;;;;;4.97;3.78;;;6.30;96.70;;;;;;4867891;29;20654;-58
2023/12/09 07:11:30;;;;;;;6.00;3.55;;;6.30;96.70;;;;;;4831572;29;20136;-58
2023/12/09 07:13:58;;;;;;;4.45;4.00;;;6.30;96.70;;;;;;4841496;29;20140;-60
2023/12/09 07:16:28;;;;;;;4.03;3.63;;;6.30;96.70;;;;;;4840536;29;20061;-59
2023/12/09 07:18:59;;;;;;;4.70;3.83;;;6.30;96.70;;;;;;4847863;29;20097;-59
2023/12/09 07:21:28;;;;;;;3.78;3.35;;;6.40;96.70;;;;;;4840500;29;20933;-58
2023/12/09 07:23:58;;;;;;;4.13;3.47;;;6.40;96.70;;;;;;4844485;29;20127;-59
2023/12/09 07:26:27;;;;;;;5.70;3.92;;;6.50;96.70;;;;;;4844367;29;20153;-58
2023/12/09 07:28:56;;;;;;;5.75;4.65;;;6.50;96.70;;;;;;4848613;29;20251;-58
2023/12/09 07:31:25;;;;;;;5.70;4.82;;;6.60;96.70;;;;;;4872330;29;20148;-59
2023/12/09 07:33:56;;;;;;;5.20;4.47;;;6.50;96.70;;;;;;4834821;29;20491;-58
2023/12/09 07:36:26;;;;;;;5.78;4.22;;;6.60;96.70;;;;;;4853454;29;20115;-58
2023/12/09 07:38:54;;;;;;;5.80;4.18;;;6.60;96.70;;;;;;4872165;29;20060;-58
2023/12/09 07:41:24;;;;;;;6.38;4.47;;;6.70;96.70;;;;;;4882359;29;20055;-59
2023/12/09 07:43:54;;;;;;;5.13;4.13;;;6.70;96.70;;;;;;4877656;29;20448;-59
2023/12/09 07:46:23;;;;;;;5.53;4.25;;;6.80;96.70;;;;;;4896986;29;20056;-59
2023/12/09 07:48:53;;;;;;;5.40;4.68;;;6.90;96.70;;;;;;4879019;29;20071;-59
2023/12/09 07:51:23;;;;;;;6.53;5.10;;;6.90;96.70;;;;;;4878297;29;20514;-59
2023/12/09 07:53:52;;;;;;;6.90;4.85;;;7.00;96.70;;;;;;4895920;29;20516;-59
2023/12/09 07:56:21;;;;;;;6.18;5.35;;;7.00;96.70;;;;;;4878672;29;20076;-59
2023/12/09 07:58:50;;;;;;;8.25;5.68;;;7.10;96.70;;;;;;4886588;29;20067;-59
2023/12/09 08:01:20;;;;;;;6.07;5.00;;;7.10;96.70;;;;;;4884533;29;20049;-59
2023/12/09 08:03:50;;;;;;;5.45;4.53;;;7.10;96.70;;;;;;4887660;29;20112;-59
2023/12/09 08:06:19;;;;;;;6.30;4.72;;;7.20;96.70;;;;;;4881732;29;20040;-59
2023/12/09 08:08:52;;;;;;;6.47;4.55;;;7.30;96.70;;;;;;4912705;29;20391;-59
2023/12/09 08:11:21;;;;;;;7.38;5.13;;;7.30;96.70;;;;;;4866896;29;20060;-59
2023/12/09 08:13:49;;;;;;;4.72;4.25;;;7.30;96.70;;;;;;4871145;29;20044;-58
2023/12/09 08:16:18;;;;;;;8.32;5.82;;;7.40;96.70;;;;;;4867162;29;20053;-58
2023/12/09 08:19:05;;;;;;;9.90;7.03;;;7.50;96.70;;;;;;4876754;29;20064;-58
2023/12/09 08:21:37;;;;;;;8.00;6.32;;;7.50;96.70;;;;;;4877438;29;20079;-59
2023/12/09 08:24:10;;;;;;;8.98;6.07;;;7.50;96.70;;;;;;4894514;29;20052;-58
2023/12/09 08:26:40;;;;;;;6.18;4.78;;;7.60;96.70;;;;;;4882165;29;20111;-58
2023/12/09 08:29:11;;;;;;;7.82;5.60;;;7.60;96.70;;;;;;4889085;29;20511;-58
2023/12/09 08:31:42;;;;;;;6.60;5.10;;;7.70;96.70;;;;;;4866647;29;20558;-59
2023/12/09 08:34:12;;;;;;;7.25;4.78;;;7.70;96.70;;;;;;4876949;29;20057;-58
2023/12/09 08:36:40;;;;;;;6.30;4.38;;;7.80;96.70;;;;;;4879822;29;20582;-59
2023/12/09 08:39:12;;;;;;;5.72;4.00;;;7.80;96.70;;;;;;4877556;29;20083;-59
2023/12/09 08:41:42;;;;;;;5.38;3.70;;;7.90;96.70;;;;;;4879863;29;20083;-58
2023/12/09 08:44:11;;;;;;;4.82;3.90;;;8.00;96.70;;;;;;4880719;29;20060;-58
2023/12/09 08:46:39;;;;;;;6.03;3.95;;;8.00;96.70;;;;;;4892537;29;20075;-59
2023/12/09 08:49:07;;;;;;;7.25;4.35;;;8.10;96.70;;;;;;4872598;29;20079;-59
2023/12/09 08:51:44;;;;;;;5.65;4.07;;;8.20;96.70;;;;;;4883210;29;20139;-58
2023/12/09 08:54:17;;;;;;;9.30;5.63;;;8.30;96.70;;;;;;4877680;29;20048;-59
2023/12/09 08:56:46;;;;;;;10.43;6.88;;;8.30;96.70;;;;;;4895926;29;20056;-59
2023/12/09 08:59:16;;;;;;;10.43;6.50;;;8.40;96.70;;;;;;4875812;29;20575;-59
2023/12/09 09:01:45;;;;;;;10.68;6.72;;;8.40;96.70;;;;;;4887964;29;20048;-59
2023/12/09 09:04:14;;;;;;;11.05;6.53;;;8.50;96.70;;;;;;4876006;29;20087;-59
2023/12/09 09:06:43;;;;;;;7.07;4.45;;;8.60;96.70;;;;;;4877719;29;20053;-59
2023/12/09 09:09:12;;;;;;;6.13;4.45;;;8.70;96.70;;;;;;4875621;29;20092;-58
2023/12/09 09:11:45;;;;;;;6.90;4.75;;;8.70;96.70;;;;;;4889672;29;20063;-59
2023/12/09 09:14:13;;;;;;;6.40;3.78;;;8.80;96.70;;;;;;4879886;29;20044;-59
2023/12/09 09:16:42;;;;;;;4.13;3.47;;;8.80;96.70;;;;;;4894124;29;20047;-59
2023/12/09 09:19:11;;;;;;;4.80;3.38;;;8.90;96.70;;;;;;4888827;29;20048;-58
2023/12/09 09:21:40;;;;;;;4.88;3.45;;;9.00;96.70;;;;;;4877992;29;20044;-58
2023/12/09 09:24:10;;;;;;;5.75;3.72;;;9.00;96.70;;;;;;4893361;29;20454;-59
2023/12/09 09:26:39;;;;;;;5.68;3.88;;;9.10;96.70;;;;;;4879851;29;20116;-58
2023/12/09 09:29:10;;;;;;;4.93;3.50;;;9.20;96.70;;;;;;4893389;29;20390;-59
2023/12/09 09:31:41;;;;;;;5.30;3.47;;;9.30;96.70;;;;;;4879360;29;20053;-57
2023/12/09 09:34:10;;;;;;;4.88;3.20;;;9.30;96.70;;;;;;4876732;29;20055;-57
2023/12/09 09:36:39;;;;;;;3.75;3.17;;;9.40;96.70;;;;;;4884779;29;20136;-57
2023/12/09 09:39:09;;;;;;;3.42;2.50;;;9.40;96.70;;;;;;4905217;29;20155;-59
2023/12/09 09:41:51;;;;;;;3.53;2.78;;;9.50;96.70;;;;;;4876396;29;20155;-59
2023/12/09 09:44:26;;;;;;;4.53;2.85;;;9.50;96.70;;;;;;4878474;29;20054;-59
2023/12/09 09:46:57;;;;;;;5.22;2.85;;;9.60;96.70;;;;;;4876040;29;20112;-59
2023/12/09 09:49:33;;;;;;;3.08;2.40;;;9.70;96.70;;;;;;4904865;29;20052;-59
2023/12/09 09:52:06;;;;;;;3.53;2.70;;;9.70;96.70;;;;;;4894855;29;20132;-59
2023/12/09 09:54:37;;;;;;;3.20;2.72;;;9.80;96.70;;;;;;4890504;29;20048;-59
2023/12/09 09:57:08;;;;;;;3.80;2.65;;;9.80;96.70;;;;;;4890582;29;20100;-60
2023/12/09 09:59:41;;;;;;;2.60;2.35;;;10.00;96.70;;;;;;4887114;29;20545;-58
2023/12/09 10:02:12;;;;;;;3.08;2.30;;;10.10;96.70;;;;;;4877735;29;20048;-58
2023/12/09 10:04:41;;;;;;;2.75;2.38;;;10.10;96.70;;;;;;4873477;29;20139;-58
2023/12/09 10:07:11;;;;;;;3.08;2.60;;;10.20;96.70;;;;;;4885209;29;20518;-58
2023/12/09 10:09:42;;;;;;;4.25;3.45;;;10.30;96.70;;;;;;4890409;29;20063;-58
2023/12/09 10:12:13;;;;;;;3.03;2.72;;;10.40;96.70;;;;;;4902556;29;20448;-60
2023/12/09 10:14:44;;;;;;;6.28;3.17;;;10.50;96.70;;;;;;4876616;29;20409;-59
2023/12/09 10:17:19;;;;;;;4.00;3.33;;;10.60;96.70;;;;;;4885457;29;20056;-60
2023/12/09 10:19:50;;;;;;;5.05;3.53;;;10.60;96.70;;;;;;4877634;29;20056;-60
2023/12/09 10:22:19;;;;;;;4.10;3.33;;;10.70;96.70;;;;;;4889437;29;20056;-59
2023/12/09 10:24:50;;;;;;;4.50;3.40;;;10.80;96.70;;;;;;4870568;29;20045;-60
2023/12/09 10:27:22;;;;;;;3.33;2.80;;;10.80;96.70;;;;;;4886173;29;20126;-60
2023/12/09 10:29:54;;;;;;;3.92;2.70;;;10.90;96.70;;;;;;4876814;29;20142;-59
2023/12/09 10:32:25;;;;;;;4.57;2.97;;;11.00;96.70;;;;;;4877194;29;20094;-60
2023/12/09 10:34:54;;;;;;;4.32;2.70;;;11.10;96.70;;;;;;4874772;29;20131;-59
2023/12/09 10:37:32;;;;;;;3.00;2.70;;;11.10;96.70;;;;;;4870915;29;20533;-59
2023/12/09 10:40:08;;;;;;;4.75;3.55;;;11.20;96.70;;;;;;4894332;29;20147;-58
2023/12/09 10:42:38;;;;;;;4.03;3.10;;;11.20;96.70;;;;;;4876665;29;20052;-58
2023/12/09 10:45:11;;;;;;;3.20;2.83;;;11.30;96.70;;;;;;4875487;29;20120;-60
2023/12/09 10:47:40;;;;;;;4.50;2.80;;;11.40;96.70;;;;;;4886907;29;20063;-61
2023/12/09 10:50:10;;;;;;;3.97;2.47;;;11.50;96.70;;;;;;4892564;29;20055;-59
2023/12/09 10:52:40;;;;;;;3.92;2.45;;;11.60;96.70;;;;;;4889268;29;20048;-58
2023/12/09 10:55:10;;;;;;;3.50;2.70;;;11.60;96.70;;;;;;4877478;29;20056;-59
2023/12/09 10:57:41;;;;;;;3.40;3.08;;;11.80;96.70;;;;;;4890640;29;20048;-59
2023/12/09 11:00:14;;;;;;;3.65;2.50;;;11.90;96.70;;;;;;4873937;29;20055;-59
2023/12/09 11:02:45;;;;;;;3.35;2.47;;;11.90;96.70;;;;;;4892064;29;20060;-59
2023/12/09 11:05:15;;;;;;;3.38;2.65;;;12.00;96.70;;;;;;4899470;29;20430;-59
2023/12/09 11:07:47;;;;;;;3.78;3.17;;;12.10;96.70;;;;;;4872906;29;20082;-59
2023/12/09 11:10:16;;;;;;;3.05;2.42;;;12.20;96.70;;;;;;4870374;29;20048;-58
2023/12/09 11:12:47;;;;;;;3.85;2.42;;;12.30;96.70;;;;;;4875006;29;20056;-57
2023/12/09 11:15:28;;;;;;;3.72;2.30;;;12.30;96.70;;;;;;4892322;29;20044;-60
2023/12/09 11:18:07;;;;;;;4.35;3.38;;;12.30;96.70;;;;;;4888442;29;20048;-61
2023/12/09 11:20:40;;;;;;;3.00;2.50;;;12.40;96.70;;;;;;4878954;29;20669;-59
2023/12/09 11:23:10;;;;;;;2.88;2.30;;;12.40;96.70;;;;;;4879231;29;20076;-60
2023/12/09 11:25:42;;;;;;;4.00;2.50;;;12.40;96.70;;;;;;4878990;29;20450;-60
2023/12/09 11:28:14;;;;;;;5.55;2.88;;;12.50;96.70;;;;;;4873340;29;20531;-59
2023/12/09 11:30:45;;;;;;;6.25;2.75;;;12.60;96.70;;;;;;4894684;29;20131;-60
2023/12/09 11:33:15;;;;;;;11.65;3.78;;;12.70;96.70;;;;;;4911860;29;20172;-62
2023/12/09 11:35:45;;;;;;;5.75;2.88;;;12.80;96.70;;;;;;4878956;29;20059;-61
2023/12/09 11:38:15;;;;;;;4.72;2.72;;;13.00;96.70;;;;;;4876389;29;20143;-61
2023/12/09 11:40:45;;;;;;;2.88;2.47;;;13.00;96.70;;;;;;4875302;29;20075;-62
2023/12/09 11:43:15;;;;;;;4.43;2.33;;;13.00;96.70;;;;;;4877881;29;20041;-62
2023/12/09 11:45:47;;;;;;;3.58;2.13;;;13.10;96.70;;;;;;4892722;29;20048;-62
2023/12/09 11:48:16;;;;;;;4.85;2.70;;;13.20;96.70;;;;;;4872945;29;20056;-61
2023/12/09 11:50:47;;;;;;;5.90;2.40;;;13.30;96.70;;;;;;4880971;29;20408;-61
2023/12/09 11:53:17;;;;;;;4.70;2.70;;;13.40;96.70;;;;;;4885648;29;20048;-61
2023/12/09 11:55:45;;;;;;;4.97;2.45;;;13.40;96.70;;;;;;4873211;29;20048;-61
2023/12/09 11:58:14;;;;;;;2.83;2.13;;;13.50;96.70;;;;;;4871641;29;20055;-62
2023/12/09 12:00:46;;;;;;;3.65;2.20;;;13.50;96.70;;;;;;4879576;29;20048;-62
2023/12/09 12:03:15;;;;;;;3.75;2.08;;;13.60;96.70;;;;;;4893400;29;20051;-62
2023/12/09 12:05:43;;;;;;;2.10;1.90;;;13.60;96.70;;;;;;4878683;29;20058;-62
2023/12/09 12:08:15;;;;;;;2.72;1.98;;;13.80;96.70;;;;;;4891276;29;20108;-62
2023/12/09 12:10:44;;;;;;;2.28;1.85;;;13.90;96.70;;;;;;4881720;29;20060;-62
2023/12/09 12:13:13;;;;;;;2.45;1.60;;;14.00;96.70;;;;;;4861248;29;20120;-61
2023/12/09 12:15:43;;;;;;;2.22;1.90;;;14.00;96.70;;;;;;4880419;29;20063;-61
2023/12/09 12:18:14;;;;;;;2.50;1.90;;;14.10;96.70;;;;;;4875970;29;20048;-60
2023/12/09 12:20:44;;;;;;;1.88;1.67;;;14.20;96.70;;;;;;4877631;29;20493;-60
2023/12/09 12:23:13;;;;;;;2.00;1.50;;;14.30;96.70;;;;;;4892052;29;20036;-60
2023/12/09 12:25:57;;;;;;;2.38;1.48;;;14.30;96.70;;;;;;4896606;29;20063;-59
2023/12/09 12:28:26;;;;;;;2.20;1.80;;;14.40;96.70;;;;;;4873061;29;20440;-60
2023/12/09 12:30:56;;;;;;;1.67;1.33;;;14.60;96.70;;;;;;4883332;29;20195;-61
2023/12/09 12:33:31;;;;;;;1.75;1.60;;;14.70;96.70;;;;;;4871862;29;20045;-60
2023/12/09 12:36:01;;;;;;;;;;;14.80;96.70;;;;;;4883637;29;20160;-59
2023/12/09 12:38:30;;;;;;;3.53;2.05;;;14.70;96.70;;;;;;4850221;29;19923;-59
2023/12/09 12:40:59;;;;;;;2.05;1.65;;;14.50;96.70;;;;;;4853184;29;20060;-60
2023/12/09 12:43:30;;;;;;;2.47;1.92;;;14.30;96.70;;;;;;4859263;29;20569;-59
2023/12/09 12:46:03;;;;;;;3.40;2.20;;;14.20;96.70;;;;;;4865010;29;20052;-59
2023/12/09 12:48:34;;;;;;;4.30;2.13;;;14.10;96.70;;;;;;4850035;29;20117;-60
2023/12/09 12:51:03;;;;;;;2.45;1.88;;;13.90;96.70;;;;;;4851271;29;20065;-60
2023/12/09 12:53:33;;;;;;;3.42;1.80;;;13.80;96.70;;;;;;4863406;29;20512;-60
2023/12/09 12:56:02;;;;;;;2.60;1.70;;;13.70;96.70;;;;;;4835920;29;20061;-60
2023/12/09 12:58:32;;;;;;;3.55;1.58;;;13.60;96.70;;;;;;4856276;29;20148;-59
2023/12/09 13:01:01;;;;;;;3.30;1.83;;;13.50;96.70;;;;;;4869555;29;20045;-61
2023/12/09 13:03:35;;;;;;;3.70;2.50;;;13.30;96.70;;;;;;4875162;29;20044;-61
2023/12/09 13:06:06;;;;;;;4.63;2.90;;;13.20;96.70;;;;;;4869950;29;20088;-60
2023/12/09 13:08:36;;;;;;;3.97;2.30;;;13.00;96.70;;;;;;4858287;29;20068;-61
2023/12/09 13:11:05;;;;;;;3.78;2.55;;;12.90;96.70;;;;;;4855827;29;20146;-60